sensor_id;sensor_type;location;lat;lon;timestamp;P1;durP1;ratioP1;P2;durP2;ratioP2
35522;SDS011;61478;50.820;4.330;2022-11-25T00:01:24;21.85;;;4.88;;
35522;SDS011;61478;50.820;4.330;2022-11-25T00:03:52;22.88;;;4.20;;
35522;SDS011;61478;50.820;4.330;2022-11-25T00:06:22;19.70;;;4.88;;
35522;SDS011;61478;50.820;4.330;2022-11-25T00:08:50;25.27;;;5.88;;
35522;SDS011;61478;50.820;4.330;2022-11-25T00:11:21;32.17;;;6.78;;
35522;SDS011;61478;50.820;4.330;2022-11-25T00:13:47;31.75;;;5.70;;
35522;SDS011;61478;50.820;4.330;2022-11-25T00:16:17;23.20;;;5.13;;
35522;SDS011;61478;50.820;4.330;2022-11-25T00:18:48;28.25;;;5.18;;
35522;SDS011;61478;50.820;4.330;2022-11-25T00:21:16;20.90;;;5.43;;
35522;SDS011;61478;50.820;4.330;2022-11-25T00:23:49;26.33;;;6.00;;
35522;SDS011;61478;50.820;4.330;2022-11-25T00:26:19;23.40;;;4.97;;
35522;SDS011;61478;50.820;4.330;2022-11-25T00:28:46;20.65;;;4.78;;
35522;SDS011;61478;50.820;4.330;2022-11-25T00:31:14;33.40;;;5.47;;
35522;SDS011;61478;50.820;4.330;2022-11-25T00:33:42;25.42;;;6.55;;
35522;SDS011;61478;50.820;4.330;2022-11-25T00:36:15;27.45;;;5.15;;
35522;SDS011;61478;50.820;4.330;2022-11-25T00:38:42;22.37;;;4.83;;
35522;SDS011;61478;50.820;4.330;2022-11-25T00:41:08;14.23;;;3.47;;
35522;SDS011;61478;50.820;4.330;2022-11-25T00:43:52;12.95;;;3.40;;
35522;SDS011;61478;50.820;4.330;2022-11-25T00:46:37;12.23;;;2.47;;
35522;SDS011;61478;50.820;4.330;2022-11-25T00:49:02;9.00;;;2.08;;
35522;SDS011;61478;50.820;4.330;2022-11-25T00:51:28;7.25;;;1.98;;
35522;SDS011;61478;50.820;4.330;2022-11-25T00:53:54;7.00;;;1.58;;
35522;SDS011;61478;50.820;4.330;2022-11-25T00:56:20;13.82;;;2.17;;
35522;SDS011;61478;50.820;4.330;2022-11-25T00:58:47;8.32;;;2.53;;
35522;SDS011;61478;50.820;4.330;2022-11-25T01:01:13;7.30;;;2.10;;
35522;SDS011;61478;50.820;4.330;2022-11-25T01:03:39;8.18;;;2.35;;
35522;SDS011;61478;50.820;4.330;2022-11-25T01:06:06;8.75;;;2.53;;
35522;SDS011;61478;50.820;4.330;2022-11-25T01:08:35;5.82;;;1.80;;
35522;SDS011;61478;50.820;4.330;2022-11-25T01:11:03;7.70;;;2.05;;
35522;SDS011;61478;50.820;4.330;2022-11-25T01:13:31;10.27;;;1.95;;
35522;SDS011;61478;50.820;4.330;2022-11-25T01:16:01;9.18;;;2.60;;
35522;SDS011;61478;50.820;4.330;2022-11-25T01:18:28;8.68;;;2.40;;
35522;SDS011;61478;50.820;4.330;2022-11-25T01:20:54;4.85;;;1.55;;
35522;SDS011;61478;50.820;4.330;2022-11-25T01:23:20;7.05;;;2.15;;
35522;SDS011;61478;50.820;4.330;2022-11-25T01:25:46;11.50;;;2.50;;
35522;SDS011;61478;50.820;4.330;2022-11-25T01:28:12;5.45;;;1.55;;
35522;SDS011;61478;50.820;4.330;2022-11-25T01:30:38;7.38;;;1.90;;
35522;SDS011;61478;50.820;4.330;2022-11-25T01:33:04;8.90;;;2.15;;
35522;SDS011;61478;50.820;4.330;2022-11-25T01:35:30;6.00;;;2.05;;
35522;SDS011;61478;50.820;4.330;2022-11-25T01:37:56;5.25;;;2.22;;
35522;SDS011;61478;50.820;4.330;2022-11-25T01:40:22;8.13;;;2.05;;
35522;SDS011;61478;50.820;4.330;2022-11-25T01:42:48;6.97;;;1.90;;
35522;SDS011;61478;50.820;4.330;2022-11-25T01:47:53;7.43;;;2.17;;
35522;SDS011;61478;50.820;4.330;2022-11-25T01:50:23;5.38;;;1.55;;
35522;SDS011;61478;50.820;4.330;2022-11-25T01:52:50;7.80;;;1.95;;
35522;SDS011;61478;50.820;4.330;2022-11-25T01:57:52;3.70;;;1.40;;
35522;SDS011;61478;50.820;4.330;2022-11-25T02:00:21;4.50;;;1.27;;
35522;SDS011;61478;50.820;4.330;2022-11-25T02:02:47;4.93;;;1.60;;
35522;SDS011;61478;50.820;4.330;2022-11-25T02:05:15;4.43;;;1.77;;
35522;SDS011;61478;50.820;4.330;2022-11-25T02:07:44;5.68;;;1.73;;
35522;SDS011;61478;50.820;4.330;2022-11-25T02:10:21;5.47;;;1.60;;
35522;SDS011;61478;50.820;4.330;2022-11-25T02:12:52;4.68;;;1.67;;
35522;SDS011;61478;50.820;4.330;2022-11-25T02:15:20;5.22;;;1.70;;
35522;SDS011;61478;50.820;4.330;2022-11-25T02:17:47;5.13;;;1.30;;
35522;SDS011;61478;50.820;4.330;2022-11-25T02:20:15;3.72;;;1.70;;
35522;SDS011;61478;50.820;4.330;2022-11-25T02:25:33;5.75;;;1.45;;
35522;SDS011;61478;50.820;4.330;2022-11-25T02:28:08;4.50;;;1.30;;
35522;SDS011;61478;50.820;4.330;2022-11-25T02:30:37;7.55;;;1.70;;
35522;SDS011;61478;50.820;4.330;2022-11-25T02:33:03;6.40;;;1.75;;
35522;SDS011;61478;50.820;4.330;2022-11-25T02:35:34;5.22;;;1.60;;
35522;SDS011;61478;50.820;4.330;2022-11-25T02:38:04;5.25;;;1.58;;
35522;SDS011;61478;50.820;4.330;2022-11-25T02:43:10;4.00;;;1.30;;
35522;SDS011;61478;50.820;4.330;2022-11-25T02:45:58;6.70;;;1.60;;
35522;SDS011;61478;50.820;4.330;2022-11-25T02:48:23;7.47;;;1.40;;
35522;SDS011;61478;50.820;4.330;2022-11-25T02:50:50;5.05;;;1.27;;
35522;SDS011;61478;50.820;4.330;2022-11-25T02:53:16;8.38;;;1.65;;
35522;SDS011;61478;50.820;4.330;2022-11-25T02:55:42;5.95;;;1.45;;
35522;SDS011;61478;50.820;4.330;2022-11-25T02:58:08;6.22;;;2.03;;
35522;SDS011;61478;50.820;4.330;2022-11-25T03:00:34;5.63;;;1.40;;
35522;SDS011;61478;50.820;4.330;2022-11-25T03:03:00;11.25;;;3.40;;
35522;SDS011;61478;50.820;4.330;2022-11-25T03:05:26;10.88;;;2.22;;
35522;SDS011;61478;50.820;4.330;2022-11-25T03:07:52;11.13;;;2.10;;
35522;SDS011;61478;50.820;4.330;2022-11-25T03:10:18;11.73;;;2.78;;
35522;SDS011;61478;50.820;4.330;2022-11-25T03:12:44;6.75;;;2.35;;
35522;SDS011;61478;50.820;4.330;2022-11-25T03:15:10;10.38;;;2.58;;
35522;SDS011;61478;50.820;4.330;2022-11-25T03:17:36;12.93;;;2.83;;
35522;SDS011;61478;50.820;4.330;2022-11-25T03:20:03;12.77;;;2.85;;
35522;SDS011;61478;50.820;4.330;2022-11-25T03:22:30;12.07;;;2.80;;
35522;SDS011;61478;50.820;4.330;2022-11-25T03:24:55;13.85;;;3.50;;
35522;SDS011;61478;50.820;4.330;2022-11-25T03:27:21;16.13;;;3.13;;
35522;SDS011;61478;50.820;4.330;2022-11-25T03:29:47;16.50;;;2.95;;
35522;SDS011;61478;50.820;4.330;2022-11-25T03:32:13;9.80;;;3.45;;
35522;SDS011;61478;50.820;4.330;2022-11-25T03:34:39;19.33;;;4.47;;
35522;SDS011;61478;50.820;4.330;2022-11-25T03:37:05;10.48;;;3.22;;
35522;SDS011;61478;50.820;4.330;2022-11-25T03:39:32;12.18;;;3.20;;
35522;SDS011;61478;50.820;4.330;2022-11-25T03:41:58;9.15;;;2.63;;
35522;SDS011;61478;50.820;4.330;2022-11-25T03:44:24;12.77;;;3.03;;
35522;SDS011;61478;50.820;4.330;2022-11-25T03:46:50;12.88;;;3.20;;
35522;SDS011;61478;50.820;4.330;2022-11-25T03:49:16;12.90;;;3.45;;
35522;SDS011;61478;50.820;4.330;2022-11-25T03:51:42;12.25;;;3.05;;
35522;SDS011;61478;50.820;4.330;2022-11-25T03:54:08;16.77;;;3.53;;
35522;SDS011;61478;50.820;4.330;2022-11-25T03:56:34;18.10;;;3.40;;
35522;SDS011;61478;50.820;4.330;2022-11-25T03:58:59;12.88;;;3.58;;
35522;SDS011;61478;50.820;4.330;2022-11-25T04:01:25;14.98;;;3.90;;
35522;SDS011;61478;50.820;4.330;2022-11-25T04:03:51;10.25;;;3.05;;
35522;SDS011;61478;50.820;4.330;2022-11-25T04:06:17;12.93;;;4.00;;
35522;SDS011;61478;50.820;4.330;2022-11-25T04:08:44;20.35;;;4.03;;
35522;SDS011;61478;50.820;4.330;2022-11-25T04:11:10;20.70;;;5.38;;
35522;SDS011;61478;50.820;4.330;2022-11-25T04:13:36;13.38;;;3.55;;
35522;SDS011;61478;50.820;4.330;2022-11-25T04:16:02;16.10;;;3.53;;
35522;SDS011;61478;50.820;4.330;2022-11-25T04:18:28;11.70;;;3.85;;
35522;SDS011;61478;50.820;4.330;2022-11-25T04:20:54;16.85;;;3.88;;
35522;SDS011;61478;50.820;4.330;2022-11-25T04:23:20;18.67;;;4.32;;
35522;SDS011;61478;50.820;4.330;2022-11-25T04:25:47;15.05;;;3.60;;
35522;SDS011;61478;50.820;4.330;2022-11-25T04:28:14;18.65;;;3.78;;
35522;SDS011;61478;50.820;4.330;2022-11-25T04:30:40;9.60;;;2.72;;
35522;SDS011;61478;50.820;4.330;2022-11-25T04:33:06;23.25;;;4.07;;
35522;SDS011;61478;50.820;4.330;2022-11-25T04:35:32;12.40;;;3.25;;
35522;SDS011;61478;50.820;4.330;2022-11-25T04:37:58;17.20;;;3.95;;
35522;SDS011;61478;50.820;4.330;2022-11-25T04:40:24;18.70;;;4.10;;
35522;SDS011;61478;50.820;4.330;2022-11-25T04:42:50;14.23;;;3.65;;
35522;SDS011;61478;50.820;4.330;2022-11-25T04:45:16;19.25;;;4.18;;
35522;SDS011;61478;50.820;4.330;2022-11-25T04:47:43;18.50;;;3.88;;
35522;SDS011;61478;50.820;4.330;2022-11-25T04:50:12;13.35;;;3.60;;
35522;SDS011;61478;50.820;4.330;2022-11-25T04:52:40;20.70;;;3.70;;
35522;SDS011;61478;50.820;4.330;2022-11-25T04:55:06;12.55;;;3.38;;
35522;SDS011;61478;50.820;4.330;2022-11-25T04:57:33;15.68;;;4.47;;
35522;SDS011;61478;50.820;4.330;2022-11-25T04:59:59;14.48;;;4.65;;
35522;SDS011;61478;50.820;4.330;2022-11-25T05:02:25;16.77;;;4.28;;
35522;SDS011;61478;50.820;4.330;2022-11-25T05:04:53;14.07;;;3.70;;
35522;SDS011;61478;50.820;4.330;2022-11-25T05:07:21;9.73;;;3.78;;
35522;SDS011;61478;50.820;4.330;2022-11-25T05:09:48;13.43;;;3.78;;
35522;SDS011;61478;50.820;4.330;2022-11-25T05:12:15;12.45;;;3.72;;
35522;SDS011;61478;50.820;4.330;2022-11-25T05:14:43;15.77;;;3.97;;
35522;SDS011;61478;50.820;4.330;2022-11-25T05:17:11;20.58;;;4.57;;
35522;SDS011;61478;50.820;4.330;2022-11-25T05:19:42;11.98;;;3.55;;
35522;SDS011;61478;50.820;4.330;2022-11-25T05:22:13;12.80;;;3.63;;
35522;SDS011;61478;50.820;4.330;2022-11-25T05:24:44;20.90;;;3.70;;
35522;SDS011;61478;50.820;4.330;2022-11-25T05:27:09;11.80;;;3.10;;
35522;SDS011;61478;50.820;4.330;2022-11-25T05:29:36;14.75;;;3.85;;
35522;SDS011;61478;50.820;4.330;2022-11-25T05:32:02;18.58;;;3.80;;
35522;SDS011;61478;50.820;4.330;2022-11-25T05:34:29;18.67;;;4.03;;
35522;SDS011;61478;50.820;4.330;2022-11-25T05:36:55;15.35;;;3.78;;
35522;SDS011;61478;50.820;4.330;2022-11-25T05:39:21;14.45;;;3.47;;
35522;SDS011;61478;50.820;4.330;2022-11-25T05:41:47;15.77;;;3.97;;
35522;SDS011;61478;50.820;4.330;2022-11-25T05:44:13;13.25;;;3.53;;
35522;SDS011;61478;50.820;4.330;2022-11-25T05:46:38;15.63;;;4.13;;
35522;SDS011;61478;50.820;4.330;2022-11-25T05:49:04;14.20;;;3.90;;
35522;SDS011;61478;50.820;4.330;2022-11-25T05:51:30;14.23;;;3.63;;
35522;SDS011;61478;50.820;4.330;2022-11-25T05:53:56;14.82;;;3.58;;
35522;SDS011;61478;50.820;4.330;2022-11-25T05:56:22;16.25;;;4.45;;
35522;SDS011;61478;50.820;4.330;2022-11-25T05:58:48;12.98;;;3.75;;
35522;SDS011;61478;50.820;4.330;2022-11-25T06:01:14;13.63;;;4.47;;
35522;SDS011;61478;50.820;4.330;2022-11-25T06:03:41;19.65;;;4.30;;
35522;SDS011;61478;50.820;4.330;2022-11-25T06:06:07;16.85;;;4.43;;
35522;SDS011;61478;50.820;4.330;2022-11-25T06:08:34;13.32;;;3.70;;
35522;SDS011;61478;50.820;4.330;2022-11-25T06:11:09;11.65;;;3.63;;
35522;SDS011;61478;50.820;4.330;2022-11-25T06:13:37;14.30;;;4.03;;
35522;SDS011;61478;50.820;4.330;2022-11-25T06:16:08;17.52;;;3.85;;
35522;SDS011;61478;50.820;4.330;2022-11-25T06:18:36;14.57;;;3.97;;
35522;SDS011;61478;50.820;4.330;2022-11-25T06:21:02;22.55;;;4.57;;
35522;SDS011;61478;50.820;4.330;2022-11-25T06:23:29;22.85;;;4.63;;
35522;SDS011;61478;50.820;4.330;2022-11-25T06:26:05;24.23;;;4.60;;
35522;SDS011;61478;50.820;4.330;2022-11-25T06:28:36;14.90;;;4.53;;
35522;SDS011;61478;50.820;4.330;2022-11-25T06:31:03;20.88;;;4.85;;
35522;SDS011;61478;50.820;4.330;2022-11-25T06:33:32;16.88;;;3.83;;
35522;SDS011;61478;50.820;4.330;2022-11-25T06:35:58;20.52;;;4.63;;
35522;SDS011;61478;50.820;4.330;2022-11-25T06:38:27;17.08;;;4.32;;
35522;SDS011;61478;50.820;4.330;2022-11-25T06:40:53;19.70;;;4.13;;
35522;SDS011;61478;50.820;4.330;2022-11-25T06:43:23;19.27;;;4.22;;
35522;SDS011;61478;50.820;4.330;2022-11-25T06:45:49;19.95;;;4.47;;
35522;SDS011;61478;50.820;4.330;2022-11-25T06:48:14;17.42;;;4.32;;
35522;SDS011;61478;50.820;4.330;2022-11-25T06:50:40;22.67;;;4.68;;
35522;SDS011;61478;50.820;4.330;2022-11-25T06:53:06;20.17;;;4.78;;
35522;SDS011;61478;50.820;4.330;2022-11-25T06:55:32;18.30;;;4.55;;
35522;SDS011;61478;50.820;4.330;2022-11-25T06:57:58;18.88;;;4.03;;
35522;SDS011;61478;50.820;4.330;2022-11-25T07:00:24;13.75;;;3.90;;
35522;SDS011;61478;50.820;4.330;2022-11-25T07:02:50;18.15;;;4.32;;
35522;SDS011;61478;50.820;4.330;2022-11-25T07:05:16;22.38;;;5.18;;
35522;SDS011;61478;50.820;4.330;2022-11-25T07:07:42;24.27;;;5.30;;
35522;SDS011;61478;50.820;4.330;2022-11-25T07:10:08;20.13;;;4.70;;
35522;SDS011;61478;50.820;4.330;2022-11-25T07:12:34;20.45;;;5.65;;
35522;SDS011;61478;50.820;4.330;2022-11-25T07:15:00;20.25;;;4.53;;
35522;SDS011;61478;50.820;4.330;2022-11-25T07:17:26;18.33;;;4.85;;
35522;SDS011;61478;50.820;4.330;2022-11-25T07:19:52;23.60;;;4.75;;
35522;SDS011;61478;50.820;4.330;2022-11-25T07:22:18;20.98;;;4.85;;
35522;SDS011;61478;50.820;4.330;2022-11-25T07:24:44;19.98;;;4.85;;
35522;SDS011;61478;50.820;4.330;2022-11-25T07:27:10;21.20;;;5.18;;
35522;SDS011;61478;50.820;4.330;2022-11-25T07:29:35;21.50;;;5.43;;
35522;SDS011;61478;50.820;4.330;2022-11-25T07:32:02;25.10;;;5.88;;
35522;SDS011;61478;50.820;4.330;2022-11-25T07:34:28;28.38;;;6.65;;
35522;SDS011;61478;50.820;4.330;2022-11-25T07:36:54;26.38;;;5.38;;
35522;SDS011;61478;50.820;4.330;2022-11-25T07:39:21;22.88;;;6.00;;
35522;SDS011;61478;50.820;4.330;2022-11-25T07:41:51;30.83;;;7.70;;
35522;SDS011;61478;50.820;4.330;2022-11-25T07:44:18;18.75;;;5.70;;
35522;SDS011;61478;50.820;4.330;2022-11-25T07:46:45;25.35;;;7.00;;
35522;SDS011;61478;50.820;4.330;2022-11-25T07:49:14;28.90;;;6.78;;
35522;SDS011;61478;50.820;4.330;2022-11-25T07:51:42;27.73;;;6.40;;
35522;SDS011;61478;50.820;4.330;2022-11-25T07:54:12;27.67;;;6.68;;
35522;SDS011;61478;50.820;4.330;2022-11-25T07:56:39;28.73;;;7.75;;
35522;SDS011;61478;50.820;4.330;2022-11-25T07:59:07;22.30;;;5.65;;
35522;SDS011;61478;50.820;4.330;2022-11-25T08:01:37;25.30;;;5.63;;
35522;SDS011;61478;50.820;4.330;2022-11-25T08:04:03;31.00;;;5.85;;
35522;SDS011;61478;50.820;4.330;2022-11-25T08:06:30;24.70;;;5.45;;
35522;SDS011;61478;50.820;4.330;2022-11-25T08:08:56;23.58;;;4.75;;
35522;SDS011;61478;50.820;4.330;2022-11-25T08:11:24;21.38;;;5.88;;
35522;SDS011;61478;50.820;4.330;2022-11-25T08:13:52;32.10;;;6.15;;
35522;SDS011;61478;50.820;4.330;2022-11-25T08:16:19;26.02;;;6.05;;
35522;SDS011;61478;50.820;4.330;2022-11-25T08:18:45;22.70;;;5.75;;
35522;SDS011;61478;50.820;4.330;2022-11-25T08:21:12;24.17;;;5.93;;
35522;SDS011;61478;50.820;4.330;2022-11-25T08:23:39;22.13;;;5.22;;
35522;SDS011;61478;50.820;4.330;2022-11-25T08:26:11;25.73;;;7.05;;
35522;SDS011;61478;50.820;4.330;2022-11-25T08:28:39;25.20;;;5.90;;
35522;SDS011;61478;50.820;4.330;2022-11-25T08:31:11;26.05;;;6.85;;
35522;SDS011;61478;50.820;4.330;2022-11-25T08:33:38;23.45;;;6.53;;
35522;SDS011;61478;50.820;4.330;2022-11-25T08:36:05;26.48;;;6.45;;
35522;SDS011;61478;50.820;4.330;2022-11-25T08:38:31;28.17;;;5.85;;
35522;SDS011;61478;50.820;4.330;2022-11-25T08:40:58;29.23;;;6.20;;
35522;SDS011;61478;50.820;4.330;2022-11-25T08:43:24;28.50;;;7.07;;
35522;SDS011;61478;50.820;4.330;2022-11-25T08:45:51;22.70;;;6.43;;
35522;SDS011;61478;50.820;4.330;2022-11-25T08:48:18;23.88;;;6.35;;
35522;SDS011;61478;50.820;4.330;2022-11-25T08:50:46;24.15;;;5.90;;
35522;SDS011;61478;50.820;4.330;2022-11-25T08:53:15;22.02;;;5.75;;
35522;SDS011;61478;50.820;4.330;2022-11-25T08:55:41;31.52;;;6.53;;
35522;SDS011;61478;50.820;4.330;2022-11-25T08:58:07;24.33;;;6.32;;
35522;SDS011;61478;50.820;4.330;2022-11-25T09:00:44;20.92;;;5.53;;
35522;SDS011;61478;50.820;4.330;2022-11-25T09:03:10;19.17;;;5.43;;
35522;SDS011;61478;50.820;4.330;2022-11-25T09:05:40;20.45;;;5.40;;
35522;SDS011;61478;50.820;4.330;2022-11-25T09:08:10;17.58;;;4.18;;
35522;SDS011;61478;50.820;4.330;2022-11-25T09:10:37;18.55;;;4.97;;
35522;SDS011;61478;50.820;4.330;2022-11-25T09:13:04;20.10;;;4.75;;
35522;SDS011;61478;50.820;4.330;2022-11-25T09:15:30;14.68;;;3.40;;
35522;SDS011;61478;50.820;4.330;2022-11-25T09:18:03;17.60;;;4.35;;
35522;SDS011;61478;50.820;4.330;2022-11-25T09:22:57;20.65;;;4.90;;
35522;SDS011;61478;50.820;4.330;2022-11-25T09:25:24;15.27;;;4.18;;
35522;SDS011;61478;50.820;4.330;2022-11-25T09:27:51;19.40;;;4.88;;
35522;SDS011;61478;50.820;4.330;2022-11-25T09:30:17;20.38;;;5.85;;
35522;SDS011;61478;50.820;4.330;2022-11-25T09:32:46;17.27;;;4.13;;
35522;SDS011;61478;50.820;4.330;2022-11-25T09:35:13;18.05;;;4.72;;
35522;SDS011;61478;50.820;4.330;2022-11-25T09:37:40;18.92;;;4.47;;
35522;SDS011;61478;50.820;4.330;2022-11-25T09:40:07;13.48;;;4.38;;
35522;SDS011;61478;50.820;4.330;2022-11-25T09:42:48;20.35;;;4.55;;
35522;SDS011;61478;50.820;4.330;2022-11-25T09:49:21;19.23;;;5.15;;
35522;SDS011;61478;50.820;4.330;2022-11-25T09:55:09;19.92;;;5.78;;
35522;SDS011;61478;50.820;4.330;2022-11-25T10:00:19;13.32;;;4.43;;
35522;SDS011;61478;50.820;4.330;2022-11-25T10:05:34;20.73;;;4.25;;
35522;SDS011;61478;50.820;4.330;2022-11-25T10:08:21;13.52;;;4.10;;
35522;SDS011;61478;50.820;4.330;2022-11-25T10:10:52;15.30;;;4.10;;
35522;SDS011;61478;50.820;4.330;2022-11-25T10:13:45;12.90;;;4.07;;
35522;SDS011;61478;50.820;4.330;2022-11-25T10:18:49;15.05;;;4.43;;
35522;SDS011;61478;50.820;4.330;2022-11-25T10:21:26;17.45;;;3.72;;
35522;SDS011;61478;50.820;4.330;2022-11-25T10:23:52;12.93;;;2.75;;
35522;SDS011;61478;50.820;4.330;2022-11-25T10:26:19;11.52;;;3.00;;
35522;SDS011;61478;50.820;4.330;2022-11-25T10:29:01;12.75;;;3.15;;
35522;SDS011;61478;50.820;4.330;2022-11-25T10:31:44;12.25;;;2.92;;
35522;SDS011;61478;50.820;4.330;2022-11-25T10:34:11;11.55;;;3.17;;
35522;SDS011;61478;50.820;4.330;2022-11-25T10:37:03;12.88;;;3.42;;
35522;SDS011;61478;50.820;4.330;2022-11-25T10:39:36;12.77;;;3.78;;
35522;SDS011;61478;50.820;4.330;2022-11-25T10:44:48;13.13;;;3.70;;
35522;SDS011;61478;50.820;4.330;2022-11-25T10:47:35;11.45;;;3.45;;
35522;SDS011;61478;50.820;4.330;2022-11-25T10:55:22;15.10;;;5.20;;
35522;SDS011;61478;50.820;4.330;2022-11-25T10:57:51;14.73;;;3.97;;
35522;SDS011;61478;50.820;4.330;2022-11-25T11:00:25;14.70;;;3.58;;
35522;SDS011;61478;50.820;4.330;2022-11-25T11:02:56;28.85;;;5.20;;
35522;SDS011;61478;50.820;4.330;2022-11-25T11:05:26;18.88;;;4.40;;
35522;SDS011;61478;50.820;4.330;2022-11-25T11:08:08;13.30;;;3.67;;
35522;SDS011;61478;50.820;4.330;2022-11-25T11:10:34;17.75;;;4.47;;
35522;SDS011;61478;50.820;4.330;2022-11-25T11:13:04;23.05;;;9.10;;
35522;SDS011;61478;50.820;4.330;2022-11-25T11:20:48;19.70;;;5.60;;
35522;SDS011;61478;50.820;4.330;2022-11-25T11:23:16;18.67;;;4.63;;
35522;SDS011;61478;50.820;4.330;2022-11-25T11:25:43;24.15;;;5.47;;
35522;SDS011;61478;50.820;4.330;2022-11-25T11:28:24;24.30;;;5.65;;
35522;SDS011;61478;50.820;4.330;2022-11-25T11:30:57;22.50;;;4.75;;
35522;SDS011;61478;50.820;4.330;2022-11-25T11:33:42;21.27;;;4.78;;
35522;SDS011;61478;50.820;4.330;2022-11-25T11:39:24;27.95;;;14.45;;
35522;SDS011;61478;50.820;4.330;2022-11-25T11:49:53;25.20;;;5.70;;
35522;SDS011;61478;50.820;4.330;2022-11-25T11:52:46;17.65;;;4.47;;
35522;SDS011;61478;50.820;4.330;2022-11-25T12:01:43;16.58;;;4.93;;
35522;SDS011;61478;50.820;4.330;2022-11-25T12:04:25;20.20;;;4.53;;
35522;SDS011;61478;50.820;4.330;2022-11-25T12:07:06;20.80;;;4.18;;
35522;SDS011;61478;50.820;4.330;2022-11-25T12:09:48;15.50;;;4.38;;
35522;SDS011;61478;50.820;4.330;2022-11-25T12:12:29;15.05;;;4.50;;
35522;SDS011;61478;50.820;4.330;2022-11-25T12:15:15;24.90;;;4.63;;
35522;SDS011;61478;50.820;4.330;2022-11-25T12:17:52;19.40;;;4.85;;
35522;SDS011;61478;50.820;4.330;2022-11-25T12:20:45;14.55;;;4.63;;
35522;SDS011;61478;50.820;4.330;2022-11-25T12:26:17;22.77;;;4.22;;
35522;SDS011;61478;50.820;4.330;2022-11-25T12:29:00;14.77;;;4.28;;
35522;SDS011;61478;50.820;4.330;2022-11-25T12:31:36;18.50;;;4.53;;
35522;SDS011;61478;50.820;4.330;2022-11-25T12:36:51;23.13;;;4.70;;
35522;SDS011;61478;50.820;4.330;2022-11-25T12:39:31;20.13;;;4.35;;
35522;SDS011;61478;50.820;4.330;2022-11-25T12:42:03;17.50;;;4.22;;
35522;SDS011;61478;50.820;4.330;2022-11-25T12:44:48;26.77;;;5.30;;
35522;SDS011;61478;50.820;4.330;2022-11-25T12:47:27;25.17;;;5.82;;
35522;SDS011;61478;50.820;4.330;2022-11-25T12:49:54;22.13;;;5.05;;
35522;SDS011;61478;50.820;4.330;2022-11-25T13:00:44;26.70;;;5.38;;
35522;SDS011;61478;50.820;4.330;2022-11-25T13:15:01;26.23;;;5.30;;
35522;SDS011;61478;50.820;4.330;2022-11-25T13:17:45;19.15;;;5.50;;
35522;SDS011;61478;50.820;4.330;2022-11-25T13:25:29;21.73;;;4.63;;
35522;SDS011;61478;50.820;4.330;2022-11-25T13:27:58;18.30;;;4.72;;
35522;SDS011;61478;50.820;4.330;2022-11-25T13:32:57;25.65;;;5.30;;
35522;SDS011;61478;50.820;4.330;2022-11-25T13:41:00;24.60;;;4.60;;
35522;SDS011;61478;50.820;4.330;2022-11-25T13:43:35;24.42;;;5.00;;
35522;SDS011;61478;50.820;4.330;2022-11-25T13:49:19;24.58;;;5.18;;
35522;SDS011;61478;50.820;4.330;2022-11-25T13:51:51;22.08;;;4.75;;
35522;SDS011;61478;50.820;4.330;2022-11-25T13:54:23;35.85;;;6.47;;
35522;SDS011;61478;50.820;4.330;2022-11-25T13:56:59;26.40;;;5.00;;
35522;SDS011;61478;50.820;4.330;2022-11-25T14:02:28;30.08;;;5.45;;
35522;SDS011;61478;50.820;4.330;2022-11-25T14:04:59;24.92;;;4.80;;
35522;SDS011;61478;50.820;4.330;2022-11-25T14:18:20;33.65;;;6.65;;
35522;SDS011;61478;50.820;4.330;2022-11-25T14:24:11;45.30;;;7.57;;
35522;SDS011;61478;50.820;4.330;2022-11-25T14:26:39;28.37;;;6.47;;
35522;SDS011;61478;50.820;4.330;2022-11-25T14:29:12;30.02;;;6.32;;
35522;SDS011;61478;50.820;4.330;2022-11-25T14:31:44;30.30;;;6.13;;
35522;SDS011;61478;50.820;4.330;2022-11-25T14:34:16;34.30;;;6.63;;
35522;SDS011;61478;50.820;4.330;2022-11-25T14:37:08;38.65;;;6.93;;
35522;SDS011;61478;50.820;4.330;2022-11-25T14:42:14;32.63;;;5.35;;
35522;SDS011;61478;50.820;4.330;2022-11-25T14:44:51;40.42;;;6.80;;
35522;SDS011;61478;50.820;4.330;2022-11-25T14:47:21;26.20;;;5.78;;
35522;SDS011;61478;50.820;4.330;2022-11-25T14:49:49;33.30;;;6.55;;
35522;SDS011;61478;50.820;4.330;2022-11-25T14:52:17;42.13;;;7.05;;
35522;SDS011;61478;50.820;4.330;2022-11-25T14:54:46;40.67;;;7.38;;
35522;SDS011;61478;50.820;4.330;2022-11-25T14:57:17;44.38;;;7.53;;
35522;SDS011;61478;50.820;4.330;2022-11-25T14:59:50;40.78;;;8.13;;
35522;SDS011;61478;50.820;4.330;2022-11-25T15:02:26;34.90;;;7.47;;
35522;SDS011;61478;50.820;4.330;2022-11-25T15:07:32;32.47;;;5.88;;
35522;SDS011;61478;50.820;4.330;2022-11-25T15:09:59;30.98;;;6.50;;
35522;SDS011;61478;50.820;4.330;2022-11-25T15:12:28;30.23;;;6.10;;
35522;SDS011;61478;50.820;4.330;2022-11-25T15:14:57;35.35;;;7.20;;
35522;SDS011;61478;50.820;4.330;2022-11-25T15:17:30;33.40;;;7.55;;
35522;SDS011;61478;50.820;4.330;2022-11-25T15:20:03;29.50;;;7.03;;
35522;SDS011;61478;50.820;4.330;2022-11-25T15:22:37;38.38;;;8.90;;
35522;SDS011;61478;50.820;4.330;2022-11-25T15:25:08;58.72;;;10.00;;
35522;SDS011;61478;50.820;4.330;2022-11-25T15:27:42;48.70;;;8.90;;
35522;SDS011;61478;50.820;4.330;2022-11-25T15:30:20;34.88;;;9.38;;
35522;SDS011;61478;50.820;4.330;2022-11-25T15:32:48;32.35;;;8.18;;
35522;SDS011;61478;50.820;4.330;2022-11-25T15:35:16;42.13;;;12.32;;
35522;SDS011;61478;50.820;4.330;2022-11-25T15:37:45;29.05;;;7.07;;
35522;SDS011;61478;50.820;4.330;2022-11-25T15:43:05;35.70;;;8.50;;
35522;SDS011;61478;50.820;4.330;2022-11-25T15:45:45;38.92;;;8.25;;
35522;SDS011;61478;50.820;4.330;2022-11-25T15:48:24;38.53;;;9.13;;
35522;SDS011;61478;50.820;4.330;2022-11-25T15:53:58;35.40;;;9.77;;
35522;SDS011;61478;50.820;4.330;2022-11-25T15:56:37;33.15;;;8.18;;
35522;SDS011;61478;50.820;4.330;2022-11-25T16:02:50;36.85;;;6.43;;
35522;SDS011;61478;50.820;4.330;2022-11-25T16:13:28;41.33;;;7.05;;
35522;SDS011;61478;50.820;4.330;2022-11-25T16:16:06;37.05;;;7.75;;
35522;SDS011;61478;50.820;4.330;2022-11-25T16:18:36;24.75;;;6.25;;
35522;SDS011;61478;50.820;4.330;2022-11-25T16:21:16;28.48;;;6.78;;
35522;SDS011;61478;50.820;4.330;2022-11-25T16:23:46;39.60;;;8.50;;
35522;SDS011;61478;50.820;4.330;2022-11-25T16:26:24;29.48;;;6.85;;
35522;SDS011;61478;50.820;4.330;2022-11-25T16:28:57;39.25;;;7.45;;
35522;SDS011;61478;50.820;4.330;2022-11-25T16:31:25;34.08;;;7.55;;
35522;SDS011;61478;50.820;4.330;2022-11-25T16:33:59;47.60;;;8.63;;
35522;SDS011;61478;50.820;4.330;2022-11-25T16:36:33;38.72;;;8.55;;
35522;SDS011;61478;50.820;4.330;2022-11-25T16:38:59;36.72;;;8.13;;
35522;SDS011;61478;50.820;4.330;2022-11-25T16:41:25;34.05;;;8.52;;
35522;SDS011;61478;50.820;4.330;2022-11-25T16:43:51;32.88;;;7.05;;
35522;SDS011;61478;50.820;4.330;2022-11-25T16:46:18;44.50;;;7.45;;
35522;SDS011;61478;50.820;4.330;2022-11-25T16:48:44;43.83;;;8.18;;
35522;SDS011;61478;50.820;4.330;2022-11-25T16:51:14;39.50;;;9.25;;
35522;SDS011;61478;50.820;4.330;2022-11-25T16:53:42;49.30;;;11.88;;
35522;SDS011;61478;50.820;4.330;2022-11-25T16:56:16;39.28;;;8.88;;
35522;SDS011;61478;50.820;4.330;2022-11-25T16:58:48;26.42;;;7.47;;
35522;SDS011;61478;50.820;4.330;2022-11-25T17:01:15;39.42;;;8.75;;
35522;SDS011;61478;50.820;4.330;2022-11-25T17:03:43;31.00;;;7.95;;
35522;SDS011;61478;50.820;4.330;2022-11-25T17:06:13;32.40;;;8.07;;
35522;SDS011;61478;50.820;4.330;2022-11-25T17:08:43;33.08;;;8.35;;
35522;SDS011;61478;50.820;4.330;2022-11-25T17:11:14;46.92;;;20.52;;